Time;durP1;ratioP1;P1;durP2;ratioP2;P2;SDS_P1;SDS_P2;PMS_P1;PMS_P2;Temp;Humidity;BMP_temperature;BMP_pressure;BME280_temperature;BME280_humidity;BME280_pressure;Samples;Min_cycle;Max_cycle;Signal;HPM_P1;HPM_P2
2023/04/05 00:00:31;;;;;;;28.02;13.38;;;;;;;;;;5051461;28;20060;-82
2023/04/05 00:03:00;;;;;;;36.33;15.10;;;;;;;;;;5051301;28;20021;-79
2023/04/05 00:05:33;;;;;;;29.52;15.82;;;;;;;;;;5050395;28;20025;-79
2023/04/05 00:08:00;;;;;;;32.50;16.23;;;;;;;;;;5051712;28;20040;-78
2023/04/05 00:10:29;;;;;;;32.17;14.70;;;;;;;;;;5051239;28;20029;-79
2023/04/05 00:12:56;;;;;;;30.27;16.30;;;;;;;;;;5051333;28;20021;-79
2023/04/05 00:15:22;;;;;;;36.75;16.85;;;;;;;;;;5051258;28;20044;-78
2023/04/05 00:17:48;;;;;;;32.38;16.98;;;;;;;;;;5051241;28;20025;-78
2023/04/05 00:20:14;;;;;;;32.60;17.23;;;;;;;;;;5050913;28;20040;-79
2023/04/05 00:22:42;;;;;;;31.48;17.13;;;;;;;;;;5049958;28;20027;-78
2023/04/05 00:25:08;;;;;;;33.00;17.23;;;;;;;;;;5050822;28;20024;-79
2023/04/05 00:27:34;;;;;;;38.92;17.65;;;;;;;;;;5051052;28;20060;-78
2023/04/05 00:30:00;;;;;;;42.45;18.17;;;;;;;;;;5051061;28;20045;-78
2023/04/05 00:32:26;;;;;;;36.53;18.58;;;;;;;;;;5051063;28;20037;-78
2023/04/05 00:34:53;;;;;;;34.47;18.98;;;;;;;;;;5050896;28;20108;-78
2023/04/05 00:37:19;;;;;;;38.13;19.00;;;;;;;;;;5041241;28;20032;-79
2023/04/05 00:39:45;;;;;;;38.28;18.05;;;;;;;;;;5035067;28;20025;-78
2023/04/05 00:42:11;;;;;;;35.60;18.50;;;;;;;;;;5034796;28;20049;-78
2023/04/05 00:44:37;;;;;;;37.25;19.73;;;;;;;;;;5035098;28;20025;-78
2023/04/05 00:47:04;;;;;;;36.03;18.88;;;;;;;;;;5034792;28;20057;-77
2023/04/05 00:49:31;;;;;;;43.05;19.10;;;;;;;;;;5034650;28;20107;-78
2023/04/05 00:51:57;;;;;;;45.40;19.25;;;;;;;;;;5034892;28;20041;-78
2023/04/05 00:54:24;;;;;;;40.60;19.10;;;;;;;;;;5047223;28;20029;-79
2023/04/05 00:56:51;;;;;;;42.78;20.02;;;;;;;;;;5054794;28;20025;-80
2023/04/05 00:59:18;;;;;;;39.55;19.73;;;;;;;;;;5054568;28;20458;-77
2023/04/05 01:01:53;;;;;;;38.97;20.65;;;;;;;;;;5053495;28;20116;-79
2023/04/05 01:04:20;;;;;;;38.65;18.50;;;;;;;;;;5039647;28;20105;-78
2023/04/05 01:06:56;;;;;;;35.50;17.65;;;;;;;;;;5034880;28;20033;-79
2023/04/05 01:09:29;;;;;;;36.22;18.45;;;;;;;;;;5034240;28;20080;-79
2023/04/05 01:11:57;;;;;;;38.40;19.10;;;;;;;;;;5034517;28;20037;-79
2023/04/05 01:14:23;;;;;;;41.90;19.83;;;;;;;;;;5034140;28;20021;-78
2023/04/05 01:16:50;;;;;;;43.28;20.80;;;;;;;;;;5034419;28;20030;-78
2023/04/05 01:19:16;;;;;;;44.40;21.67;;;;;;;;;;5034087;28;20541;-78
2023/04/05 01:22:04;;;;;;;37.65;19.20;;;;;;;;;;5033375;28;20510;-79
2023/04/05 01:24:45;;;;;;;45.70;20.25;;;;;;;;;;5034197;28;20020;-78
2023/04/05 01:27:16;;;;;;;37.67;18.45;;;;;;;;;;5034331;28;20064;-78
2023/04/05 01:30:02;;;;;;;39.47;19.23;;;;;;;;;;5034236;28;20036;-79
2023/04/05 01:32:35;;;;;;;40.80;20.08;;;;;;;;;;5034302;28;20021;-79
2023/04/05 01:35:09;;;;;;;45.33;21.58;;;;;;;;;;5032859;28;20029;-77
2023/04/05 01:37:38;;;;;;;43.17;20.42;;;;;;;;;;5033514;28;20028;-78
2023/04/05 01:40:05;;;;;;;37.55;18.95;;;;;;;;;;5034040;28;20030;-78
2023/04/05 01:42:31;;;;;;;44.72;20.17;;;;;;;;;;5033502;28;20045;-78
2023/04/05 01:44:58;;;;;;;34.75;17.70;;;;;;;;;;5032413;28;20029;-78
2023/04/05 01:47:24;;;;;;;37.53;19.75;;;;;;;;;;5033844;28;20147;-79
2023/04/05 01:49:50;;;;;;;37.85;20.02;;;;;;;;;;5033730;28;20570;-79
2023/04/05 01:52:16;;;;;;;47.80;20.77;;;;;;;;;;5032335;28;20032;-77
2023/04/05 01:54:42;;;;;;;44.58;20.90;;;;;;;;;;5040524;28;20021;-78
2023/04/05 01:57:08;;;;;;;43.33;21.50;;;;;;;;;;5035788;28;20079;-79
2023/04/05 01:59:35;;;;;;;42.90;20.02;;;;;;;;;;5053462;28;20037;-78
2023/04/05 02:02:01;;;;;;;42.70;20.38;;;;;;;;;;5053430;28;20032;-78
2023/04/05 02:04:27;;;;;;;45.03;22.00;;;;;;;;;;5046807;28;20032;-78
2023/04/05 02:06:53;;;;;;;44.58;20.98;;;;;;;;;;5043411;28;20035;-78
2023/04/05 02:09:20;;;;;;;44.15;20.13;;;;;;;;;;5052603;28;20025;-78
2023/04/05 02:11:46;;;;;;;49.65;22.10;;;;;;;;;;5036653;28;20021;-77
2023/04/05 02:14:12;;;;;;;47.05;21.92;;;;;;;;;;5033422;28;20505;-78
2023/04/05 02:16:38;;;;;;;49.42;21.67;;;;;;;;;;5033339;28;20025;-77
2023/04/05 02:19:04;;;;;;;46.92;22.15;;;;;;;;;;5033214;28;20165;-79
2023/04/05 02:21:30;;;;;;;53.45;23.00;;;;;;;;;;5033105;28;20048;-79
2023/04/05 02:23:56;;;;;;;48.72;22.75;;;;;;;;;;5033096;28;20072;-79
2023/04/05 02:26:23;;;;;;;54.28;23.70;;;;;;;;;;5033643;28;20639;-78
2023/04/05 02:28:49;;;;;;;54.28;25.08;;;;;;;;;;5032952;28;20025;-79
2023/04/05 02:31:15;;;;;;;55.13;25.30;;;;;;;;;;5033015;28;20024;-78
2023/04/05 02:33:41;;;;;;;50.70;23.67;;;;;;;;;;5031819;28;20032;-77
2023/04/05 02:36:08;;;;;;;50.03;23.50;;;;;;;;;;5032820;28;20087;-77
2023/04/05 02:38:35;;;;;;;54.88;25.00;;;;;;;;;;5031468;28;20630;-77
2023/04/05 02:41:01;;;;;;;56.00;25.38;;;;;;;;;;5032715;28;20030;-77
2023/04/05 02:43:27;;;;;;;54.83;25.00;;;;;;;;;;5034125;28;20045;-77
2023/04/05 02:45:53;;;;;;;51.65;24.65;;;;;;;;;;5032892;28;20382;-78
2023/04/05 02:48:19;;;;;;;54.70;25.80;;;;;;;;;;5032610;28;20029;-77
2023/04/05 02:50:49;;;;;;;52.72;26.55;;;;;;;;;;5032617;28;20033;-77
2023/04/05 02:53:15;;;;;;;57.47;25.42;;;;;;;;;;5032662;28;20025;-77
2023/04/05 02:55:42;;;;;;;60.15;27.08;;;;;;;;;;5032676;28;20025;-77
2023/04/05 02:58:08;;;;;;;62.92;27.02;;;;;;;;;;5031896;28;20459;-78
2023/04/05 03:00:35;;;;;;;49.55;22.77;;;;;;;;;;5032851;28;20033;-78
2023/04/05 03:03:01;;;;;;;48.40;23.48;;;;;;;;;;5032577;28;20018;-77
2023/04/05 03:05:27;;;;;;;58.63;25.08;;;;;;;;;;5032286;28;20021;-77
2023/04/05 03:07:53;;;;;;;57.08;24.40;;;;;;;;;;5032088;28;20482;-77
2023/04/05 03:10:21;;;;;;;52.70;24.25;;;;;;;;;;5032346;28;20071;-78
2023/04/05 03:12:50;;;;;;;53.38;24.40;;;;;;;;;;5030982;28;20557;-77
2023/04/05 03:15:16;;;;;;;55.35;26.15;;;;;;;;;;5032035;28;20028;-77
2023/04/05 03:17:43;;;;;;;54.97;25.08;;;;;;;;;;5032642;28;20030;-77
2023/04/05 03:20:09;;;;;;;60.42;26.30;;;;;;;;;;5032050;28;20375;-78
2023/04/05 03:22:35;;;;;;;52.72;24.73;;;;;;;;;;5031882;28;20017;-77
2023/04/05 03:25:02;;;;;;;63.65;26.55;;;;;;;;;;5032052;28;20033;-77
2023/04/05 03:27:28;;;;;;;59.97;27.52;;;;;;;;;;5031961;28;20383;-77
2023/04/05 03:29:54;;;;;;;65.40;27.42;;;;;;;;;;5031823;28;20082;-77
2023/04/05 03:32:20;;;;;;;56.75;26.58;;;;;;;;;;5031655;28;20026;-77
2023/04/05 03:34:46;;;;;;;58.20;26.05;;;;;;;;;;5032426;28;20029;-77
2023/04/05 03:37:12;;;;;;;57.10;26.52;;;;;;;;;;5031784;28;20026;-77
2023/04/05 03:39:38;;;;;;;62.13;26.73;;;;;;;;;;5031621;28;20100;-79
2023/04/05 03:42:04;;;;;;;49.75;24.23;;;;;;;;;;5031470;28;20162;-78
2023/04/05 03:44:30;;;;;;;55.00;24.08;;;;;;;;;;5031784;28;20477;-77
2023/04/05 03:46:57;;;;;;;56.17;27.00;;;;;;;;;;5031708;28;20176;-78
2023/04/05 03:49:23;;;;;;;56.42;25.67;;;;;;;;;;5047002;28;20076;-78
2023/04/05 03:51:49;;;;;;;49.00;22.95;;;;;;;;;;5031086;28;20029;-77
2023/04/05 03:54:15;;;;;;;44.80;22.23;;;;;;;;;;5030283;28;20359;-79
2023/04/05 03:56:41;;;;;;;55.88;23.40;;;;;;;;;;5031606;28;20033;-78
2023/04/05 03:59:08;;;;;;;47.42;22.27;;;;;;;;;;5030301;28;20032;-77
2023/04/05 04:01:35;;;;;;;48.75;22.55;;;;;;;;;;5030032;28;20087;-78
2023/04/05 04:04:03;;;;;;;51.08;23.20;;;;;;;;;;5031544;28;20024;-78
2023/04/05 04:06:29;;;;;;;49.08;22.67;;;;;;;;;;5031486;28;20053;-78
2023/04/05 04:08:56;;;;;;;48.08;22.35;;;;;;;;;;5031217;28;20225;-79
2023/04/05 04:11:22;;;;;;;47.20;23.15;;;;;;;;;;5030987;28;20029;-81
2023/04/05 04:13:48;;;;;;;47.88;23.88;;;;;;;;;;5031938;28;20030;-79
2023/04/05 04:16:16;;;;;;;50.08;24.17;;;;;;;;;;5031139;28;20032;-79
2023/04/05 04:18:42;;;;;;;45.05;21.45;;;;;;;;;;5029951;28;20040;-77
2023/04/05 04:21:09;;;;;;;46.40;21.05;;;;;;;;;;5029746;28;20041;-77
2023/04/05 04:23:37;;;;;;;47.53;21.75;;;;;;;;;;5030771;28;20029;-77
2023/04/05 04:26:03;;;;;;;42.90;19.30;;;;;;;;;;5031215;28;20109;-79
2023/04/05 04:28:33;;;;;;;33.42;18.40;;;;;;;;;;5031200;28;20032;-79
2023/04/05 04:31:03;;;;;;;40.83;18.23;;;;;;;;;;5030981;28;20017;-77
2023/04/05 04:33:30;;;;;;;42.70;19.40;;;;;;;;;;5029904;28;20032;-77
2023/04/05 04:35:56;;;;;;;38.45;20.10;;;;;;;;;;5029936;28;20473;-77
2023/04/05 04:38:24;;;;;;;39.17;19.52;;;;;;;;;;5031195;28;20100;-79
2023/04/05 04:40:52;;;;;;;36.72;18.20;;;;;;;;;;5030157;28;20041;-78
2023/04/05 04:43:25;;;;;;;41.28;19.20;;;;;;;;;;5030925;28;20390;-77
2023/04/05 04:45:53;;;;;;;37.38;18.80;;;;;;;;;;5030995;28;20026;-79
2023/04/05 04:48:19;;;;;;;37.83;19.77;;;;;;;;;;5030944;28;20021;-78
2023/04/05 04:50:46;;;;;;;41.33;20.80;;;;;;;;;;5031204;28;20021;-76
2023/04/05 04:53:12;;;;;;;35.78;19.63;;;;;;;;;;5030853;28;20022;-79
2023/04/05 04:55:41;;;;;;;40.92;19.38;;;;;;;;;;5030841;28;20029;-78
2023/04/05 04:58:09;;;;;;;39.33;18.40;;;;;;;;;;5030503;28;20029;-78
2023/04/05 05:00:35;;;;;;;36.05;18.08;;;;;;;;;;5030778;28;20044;-78
2023/04/05 05:03:02;;;;;;;35.90;17.58;;;;;;;;;;5030748;28;20537;-79
2023/04/05 05:05:28;;;;;;;35.70;17.25;;;;;;;;;;5030793;28;20025;-79
2023/04/05 05:07:54;;;;;;;33.38;16.80;;;;;;;;;;5031105;28;20050;-78
2023/04/05 05:10:20;;;;;;;38.10;16.67;;;;;;;;;;5030560;28;20027;-78
2023/04/05 05:12:50;;;;;;;40.22;20.95;;;;;;;;;;5029272;28;20529;-78
2023/04/05 05:15:16;;;;;;;46.65;21.83;;;;;;;;;;5050787;28;20033;-78
2023/04/05 05:17:43;;;;;;;43.70;20.67;;;;;;;;;;5050612;28;20104;-78
2023/04/05 05:20:10;;;;;;;39.33;18.10;;;;;;;;;;5050580;28;20044;-78
2023/04/05 05:22:37;;;;;;;38.05;18.88;;;;;;;;;;5052859;28;20059;-78
2023/04/05 05:25:04;;;;;;;41.03;19.50;;;;;;;;;;5054221;28;20025;-78
2023/04/05 05:27:30;;;;;;;44.72;20.15;;;;;;;;;;5054154;28;20032;-78
2023/04/05 05:29:56;;;;;;;43.63;21.85;;;;;;;;;;5054027;28;20028;-78
2023/04/05 05:32:22;;;;;;;44.70;21.60;;;;;;;;;;5037937;28;20561;-79
2023/04/05 05:34:48;;;;;;;40.05;18.75;;;;;;;;;;5034027;28;20104;-78
2023/04/05 05:37:16;;;;;;;38.35;18.77;;;;;;;;;;5033767;28;20033;-77
2023/04/05 05:39:43;;;;;;;33.40;17.02;;;;;;;;;;5034107;28;20022;-78
2023/04/05 05:42:09;;;;;;;33.80;17.17;;;;;;;;;;5033829;28;20476;-78
2023/04/05 05:44:36;;;;;;;38.25;18.35;;;;;;;;;;5033934;28;20025;-78
2023/04/05 05:47:02;;;;;;;36.15;18.55;;;;;;;;;;5033743;28;20572;-78
2023/04/05 05:49:28;;;;;;;34.55;18.40;;;;;;;;;;5032298;28;20026;-79
2023/04/05 05:51:55;;;;;;;36.70;19.23;;;;;;;;;;5033727;28;20083;-78
2023/04/05 05:54:21;;;;;;;36.20;17.55;;;;;;;;;;5033752;28;20024;-79
2023/04/05 05:56:47;;;;;;;34.25;17.27;;;;;;;;;;5033755;28;20037;-77
2023/04/05 05:59:13;;;;;;;35.00;17.33;;;;;;;;;;5034192;28;22572;-78
2023/04/05 06:01:41;;;;;;;38.38;19.30;;;;;;;;;;5052692;28;20017;-79
2023/04/05 06:04:07;;;;;;;39.80;19.80;;;;;;;;;;5053475;28;20079;-79
2023/04/05 06:06:34;;;;;;;46.33;21.38;;;;;;;;;;5053348;28;20029;-79
2023/04/05 06:09:00;;;;;;;43.13;21.80;;;;;;;;;;5057991;28;20033;-79
2023/04/05 06:11:26;;;;;;;46.97;22.05;;;;;;;;;;5059606;28;20029;-79
2023/04/05 06:13:55;;;;;;;42.80;21.42;;;;;;;;;;5053660;28;20025;-78
2023/04/05 06:16:21;;;;;;;47.97;24.27;;;;;;;;;;5052445;28;20029;-78
2023/04/05 06:18:47;;;;;;;42.47;20.92;;;;;;;;;;5053805;28;20033;-78
2023/04/05 06:21:14;;;;;;;40.83;20.00;;;;;;;;;;5053939;28;20037;-81
2023/04/05 06:23:41;;;;;;;37.78;19.25;;;;;;;;;;5054350;28;20065;-77
2023/04/05 06:26:07;;;;;;;47.58;19.60;;;;;;;;;;5039452;28;20109;-78
2023/04/05 06:28:34;;;;;;;37.05;18.90;;;;;;;;;;5033499;28;20018;-80
2023/04/05 06:31:00;;;;;;;38.95;19.58;;;;;;;;;;5033328;28;20034;-78
2023/04/05 06:33:26;;;;;;;40.35;20.75;;;;;;;;;;5032016;28;20033;-78
2023/04/05 06:35:52;;;;;;;34.72;19.02;;;;;;;;;;5033101;28;20039;-78
2023/04/05 06:38:18;;;;;;;39.58;19.63;;;;;;;;;;5033161;28;20029;-78
2023/04/05 06:40:44;;;;;;;41.35;19.38;;;;;;;;;;5032754;28;20049;-79
2023/04/05 06:43:10;;;;;;;39.92;20.45;;;;;;;;;;5032767;28;20092;-79
2023/04/05 06:45:37;;;;;;;35.08;20.13;;;;;;;;;;5033045;28;20080;-77
2023/04/05 06:48:03;;;;;;;39.53;18.80;;;;;;;;;;5032631;28;20623;-79
2023/04/05 06:50:29;;;;;;;34.80;18.85;;;;;;;;;;5032030;28;20060;-77
2023/04/05 06:52:55;;;;;;;32.53;18.60;;;;;;;;;;5032747;28;20593;-78
2023/04/05 06:55:23;;;;;;;35.47;19.27;;;;;;;;;;5049817;28;20085;-77
2023/04/05 06:57:49;;;;;;;40.67;19.17;;;;;;;;;;5049371;28;20022;-78
2023/04/05 07:00:16;;;;;;;37.90;19.27;;;;;;;;;;5032551;28;20040;-78
2023/04/05 07:02:42;;;;;;;37.78;19.13;;;;;;;;;;5032164;28;20609;-77
2023/04/05 07:05:09;;;;;;;36.00;19.25;;;;;;;;;;5032356;28;20669;-79
2023/04/05 07:07:39;;;;;;;36.95;19.42;;;;;;;;;;5032201;28;20355;-77
2023/04/05 07:10:05;;;;;;;42.25;19.80;;;;;;;;;;5032250;28;20037;-78
2023/04/05 07:12:31;;;;;;;35.70;19.98;;;;;;;;;;5042366;28;20021;-77
2023/04/05 07:14:58;;;;;;;31.83;18.33;;;;;;;;;;5051320;28;20029;-76
2023/04/05 07:17:25;;;;;;;30.85;17.73;;;;;;;;;;5034799;28;20628;-78
2023/04/05 07:19:51;;;;;;;36.75;19.48;;;;;;;;;;5032156;28;20029;-77
2023/04/05 07:22:17;;;;;;;31.08;18.63;;;;;;;;;;5031998;28;20036;-79
2023/04/05 07:24:45;;;;;;;41.90;18.67;;;;;;;;;;5032064;28;20100;-76
2023/04/05 07:27:11;;;;;;;38.53;17.50;;;;;;;;;;5046551;28;20025;-78
2023/04/05 07:29:39;;;;;;;36.67;17.02;;;;;;;;;;5051930;28;20021;-78
2023/04/05 07:32:06;;;;;;;33.63;18.02;;;;;;;;;;5051627;28;20124;-77
2023/04/05 07:34:33;;;;;;;32.03;17.60;;;;;;;;;;5052024;28;20021;-79
2023/04/05 07:36:59;;;;;;;41.00;17.52;;;;;;;;;;5051729;28;20061;-78
2023/04/05 07:39:25;;;;;;;29.48;17.15;;;;;;;;;;5051701;28;20021;-78
2023/04/05 07:41:51;;;;;;;32.20;16.80;;;;;;;;;;5037768;28;20050;-77
2023/04/05 07:44:17;;;;;;;32.20;16.80;;;;;;;;;;5031413;28;20109;-77
2023/04/05 07:46:44;;;;;;;36.45;18.42;;;;;;;;;;5031870;28;20091;-77
2023/04/05 07:49:11;;;;;;;29.27;17.27;;;;;;;;;;5030080;28;20485;-76
2023/04/05 07:51:37;;;;;;;31.00;16.75;;;;;;;;;;5030428;28;20104;-78
2023/04/05 07:54:04;;;;;;;32.58;17.20;;;;;;;;;;5031547;28;20025;-76
2023/04/05 07:56:30;;;;;;;37.45;19.30;;;;;;;;;;5030873;28;20530;-76
2023/04/05 07:58:56;;;;;;;32.40;18.25;;;;;;;;;;5030363;28;20030;-76
2023/04/05 08:01:26;;;;;;;34.95;18.58;;;;;;;;;;5039744;28;20126;-81
2023/04/05 08:03:52;;;;;;;31.58;17.20;;;;;;;;;;5032816;28;20026;-80
2023/04/05 08:06:19;;;;;;;39.42;18.27;;;;;;;;;;5031132;28;20039;-77
2023/04/05 08:08:45;;;;;;;32.10;17.30;;;;;;;;;;5050465;28;20436;-78
2023/04/05 08:11:11;;;;;;;32.47;17.20;;;;;;;;;;5050993;28;20024;-79
2023/04/05 08:13:40;;;;;;;38.45;18.10;;;;;;;;;;5035718;28;20072;-80
2023/04/05 08:16:06;;;;;;;29.35;17.58;;;;;;;;;;5031649;28;20060;-76
2023/04/05 08:18:32;;;;;;;33.50;15.77;;;;;;;;;;5042707;28;20029;-79
2023/04/05 08:20:58;;;;;;;27.95;16.85;;;;;;;;;;5049525;28;20033;-77
2023/04/05 08:23:25;;;;;;;22.88;12.40;;;;;;;;;;5036352;28;20030;-80
2023/04/05 08:25:52;;;;;;;32.55;17.52;;;;;;;;;;5038128;28;20024;-80
2023/04/05 08:28:18;;;;;;;27.63;16.13;;;;;;;;;;5031897;28;20030;-76
2023/04/05 08:30:45;;;;;;;29.50;15.48;;;;;;;;;;5041886;28;20111;-83
2023/04/05 08:33:12;;;;;;;30.85;15.63;;;;;;;;;;5051603;28;20017;-82
2023/04/05 08:35:38;;;;;;;22.05;11.43;;;;;;;;;;5043610;28;20083;-80
2023/04/05 08:38:06;;;;;;;20.98;11.35;;;;;;;;;;5067840;28;20028;-80
2023/04/05 08:40:41;;;;;;;24.25;12.57;;;;;;;;;;5046939;28;20071;-83
2023/04/05 08:43:13;;;;;;;20.73;12.05;;;;;;;;;;5051178;28;20051;-80
2023/04/05 08:45:44;;;;;;;24.85;13.02;;;;;;;;;;5051171;28;20147;-81
2023/04/05 08:48:10;;;;;;;20.35;11.10;;;;;;;;;;5049813;28;20025;-83
2023/04/05 08:50:36;;;;;;;21.15;10.85;;;;;;;;;;5049475;28;20120;-80
2023/04/05 08:53:02;;;;;;;22.20;10.07;;;;;;;;;;5037381;28;20025;-81
2023/04/05 08:55:28;;;;;;;21.20;10.35;;;;;;;;;;5029232;28;20477;-79
2023/04/05 08:57:58;;;;;;;19.33;9.52;;;;;;;;;;5037165;28;20035;-80
2023/04/05 09:00:24;;;;;;;23.58;11.20;;;;;;;;;;5044964;28;20033;-79
2023/04/05 09:02:52;;;;;;;24.80;10.57;;;;;;;;;;5034624;28;20108;-80
2023/04/05 09:05:19;;;;;;;17.92;9.90;;;;;;;;;;5034878;28;20085;-76
2023/04/05 09:07:46;;;;;;;18.65;10.80;;;;;;;;;;5041658;28;20056;-75
2023/04/05 09:10:13;;;;;;;19.35;9.57;;;;;;;;;;5041573;28;20550;-73
2023/04/05 09:12:40;;;;;;;22.38;10.77;;;;;;;;;;5048603;28;20448;-74
2023/04/05 09:15:07;;;;;;;22.02;9.90;;;;;;;;;;5046167;28;20076;-74
2023/04/05 09:17:33;;;;;;;17.77;9.52;;;;;;;;;;5034643;28;20030;-76
2023/04/05 09:19:59;;;;;;;24.30;10.30;;;;;;;;;;5035176;28;20033;-69
2023/04/05 09:22:27;;;;;;;16.30;10.05;;;;;;;;;;5041246;28;20029;-70
2023/04/05 09:24:53;;;;;;;25.38;11.07;;;;;;;;;;5037772;28;20385;-70
2023/04/05 09:27:19;;;;;;;18.05;10.68;;;;;;;;;;5044501;28;20033;-70
2023/04/05 09:29:49;;;;;;;21.08;10.90;;;;;;;;;;5054066;28;20025;-69
2023/04/05 09:32:17;;;;;;;15.88;8.95;;;;;;;;;;5045242;28;20017;-70
2023/04/05 09:34:43;;;;;;;21.70;9.27;;;;;;;;;;5052765;28;20029;-69
2023/04/05 09:37:27;;;;;;;22.40;11.13;;;;;;;;;;5054042;28;20473;-71
2023/04/05 09:40:02;;;;;;;20.17;10.02;;;;;;;;;;5052651;28;20025;-71
2023/04/05 09:42:30;;;;;;;17.35;9.02;;;;;;;;;;5041931;28;20064;-69
2023/04/05 09:45:01;;;;;;;18.13;9.82;;;;;;;;;;5033984;28;20060;-71
2023/04/05 09:47:31;;;;;;;19.60;9.65;;;;;;;;;;5050511;28;20025;-69
2023/04/05 09:50:04;;;;;;;19.63;9.60;;;;;;;;;;5035000;28;20028;-70
2023/04/05 09:52:31;;;;;;;24.13;9.90;;;;;;;;;;5033932;28;20485;-69
2023/04/05 09:54:59;;;;;;;17.63;9.75;;;;;;;;;;5033938;28;20028;-69
2023/04/05 09:57:26;;;;;;;13.57;8.35;;;;;;;;;;5033826;28;20029;-69
2023/04/05 09:59:53;;;;;;;18.60;10.70;;;;;;;;;;5033297;28;20105;-70
2023/04/05 10:02:19;;;;;;;25.20;11.07;;;;;;;;;;5046845;28;20599;-70
2023/04/05 10:04:47;;;;;;;19.02;9.77;;;;;;;;;;5034898;28;20033;-70
2023/04/05 10:07:14;;;;;;;18.83;10.18;;;;;;;;;;5037433;28;20116;-70
2023/04/05 10:09:41;;;;;;;21.95;11.32;;;;;;;;;;5052212;28;20100;-71
2023/04/05 10:12:08;;;;;;;18.40;10.70;;;;;;;;;;5039081;28;20083;-71
2023/04/05 10:14:35;;;;;;;20.33;11.30;;;;;;;;;;5032737;28;20021;-70
2023/04/05 10:17:09;;;;;;;20.95;10.88;;;;;;;;;;5033327;28;20405;-70
2023/04/05 10:20:00;;;;;;;21.50;10.82;;;;;;;;;;5033130;28;20500;-69
2023/04/05 10:22:29;;;;;;;16.95;9.93;;;;;;;;;;5031732;28;20083;-67
2023/04/05 10:25:03;;;;;;;22.42;12.13;;;;;;;;;;5033218;28;20517;-69
2023/04/05 10:27:39;;;;;;;19.90;11.43;;;;;;;;;;5033015;28;20030;-69
2023/04/05 10:30:07;;;;;;;28.45;11.90;;;;;;;;;;5033093;28;20025;-69
2023/04/05 10:32:33;;;;;;;20.50;11.23;;;;;;;;;;5033107;28;20075;-68
2023/04/05 10:35:05;;;;;;;19.40;10.95;;;;;;;;;;5032810;28;20547;-68
2023/04/05 10:37:55;;;;;;;23.67;11.82;;;;;;;;;;5033302;28;20079;-69
2023/04/05 10:40:21;;;;;;;24.33;11.77;;;;;;;;;;5032316;28;20091;-69
2023/04/05 10:42:48;;;;;;;26.17;12.30;;;;;;;;;;5032585;28;20060;-70
2023/04/05 10:45:18;;;;;;;20.35;11.52;;;;;;;;;;5047851;28;20021;-70
2023/04/05 10:47:50;;;;;;;19.23;9.90;;;;;;;;;;5050769;28;20060;-70
2023/04/05 10:50:19;;;;;;;20.02;10.43;;;;;;;;;;5067766;28;20025;-70
2023/04/05 10:52:46;;;;;;;17.38;10.30;;;;;;;;;;5062986;28;20025;-73
2023/04/05 10:55:12;;;;;;;14.55;9.05;;;;;;;;;;5052343;28;20029;-72
2023/04/05 10:57:39;;;;;;;20.30;8.70;;;;;;;;;;5052454;28;20036;-72
2023/04/05 11:00:05;;;;;;;21.48;9.10;;;;;;;;;;5052027;28;20069;-73
2023/04/05 11:02:32;;;;;;;17.35;7.70;;;;;;;;;;5052314;28;20104;-74
2023/04/05 11:05:03;;;;;;;16.50;7.28;;;;;;;;;;5052000;28;20556;-73
2023/04/05 11:07:41;;;;;;;13.80;6.63;;;;;;;;;;5052107;28;20020;-71
2023/04/05 11:10:16;;;;;;;12.50;7.22;;;;;;;;;;5051912;28;20036;-73
2023/04/05 11:12:48;;;;;;;11.95;6.75;;;;;;;;;;5050717;28;20044;-75
2023/04/05 11:15:14;;;;;;;;;;;;;;;;;;5052464;28;20025;-74
2023/04/05 11:17:40;;;;;;;15.40;6.40;;;;;;;;;;5052004;28;19924;-73
2023/04/05 11:20:10;;;;;;;12.75;7.32;;;;;;;;;;5051510;28;20438;-73
2023/04/05 11:22:37;;;;;;;14.60;6.95;;;;;;;;;;5051946;28;20138;-74
2023/04/05 11:25:03;;;;;;;13.15;6.95;;;;;;;;;;5051857;28;20393;-74
2023/04/05 11:27:30;;;;;;;14.20;7.13;;;;;;;;;;5050239;28;20029;-73
2023/04/05 11:30:05;;;;;;;13.60;7.03;;;;;;;;;;5050601;28;20017;-72
2023/04/05 11:32:39;;;;;;;12.73;7.10;;;;;;;;;;5051799;28;20035;-72
2023/04/05 11:35:07;;;;;;;13.98;6.63;;;;;;;;;;5051407;28;20021;-73
2023/04/05 11:37:51;;;;;;;13.32;6.95;;;;;;;;;;5051955;28;20021;-73
2023/04/05 11:40:28;;;;;;;14.23;6.43;;;;;;;;;;5051529;28;20485;-74
2023/04/05 11:43:08;;;;;;;15.15;6.20;;;;;;;;;;5050167;28;20139;-73
2023/04/05 11:45:35;;;;;;;9.82;6.38;;;;;;;;;;5051499;28;20462;-73
2023/04/05 11:48:08;;;;;;;15.05;5.90;;;;;;;;;;5049965;28;20044;-73
2023/04/05 11:50:38;;;;;;;12.95;6.63;;;;;;;;;;5051219;28;20028;-72
2023/04/05 11:53:11;;;;;;;12.05;6.25;;;;;;;;;;5051357;28;20043;-73
2023/04/05 11:55:37;;;;;;;12.48;6.15;;;;;;;;;;5051417;28;20036;-74
2023/04/05 11:58:11;;;;;;;10.75;5.75;;;;;;;;;;5051371;28;20028;-74
2023/04/05 12:00:37;;;;;;;14.75;6.47;;;;;;;;;;5051071;28;20033;-74
2023/04/05 12:03:03;;;;;;;14.15;6.63;;;;;;;;;;5051099;28;20086;-73
2023/04/05 12:05:44;;;;;;;12.38;6.78;;;;;;;;;;5051202;28;20033;-73
2023/04/05 12:08:10;;;;;;;12.60;6.60;;;;;;;;;;5051115;28;20020;-74
2023/04/05 12:10:36;;;;;;;14.43;6.30;;;;;;;;;;5051068;28;20071;-75
2023/04/05 12:13:02;;;;;;;9.32;5.65;;;;;;;;;;5050718;28;20078;-74
2023/04/05 12:15:28;;;;;;;10.18;6.25;;;;;;;;;;5051133;28;20473;-74
2023/04/05 12:17:54;;;;;;;11.40;7.10;;;;;;;;;;5051036;28;20511;-74
2023/04/05 12:20:23;;;;;;;9.70;6.07;;;;;;;;;;5049485;28;20048;-73
2023/04/05 12:22:51;;;;;;;14.85;6.53;;;;;;;;;;5050787;28;20036;-75
2023/04/05 12:25:17;;;;;;;13.48;6.25;;;;;;;;;;5051094;28;20481;-71
2023/04/05 12:27:44;;;;;;;12.40;6.03;;;;;;;;;;5050924;28;20025;-73
2023/04/05 12:30:13;;;;;;;13.20;7.65;;;;;;;;;;5051188;28;20083;-71
2023/04/05 12:32:52;;;;;;;14.38;6.07;;;;;;;;;;5052535;28;20052;-73
2023/04/05 12:35:20;;;;;;;13.77;5.32;;;;;;;;;;5055095;28;20027;-71
2023/04/05 12:37:46;;;;;;;12.70;6.80;;;;;;;;;;5053922;28;20431;-73
2023/04/05 12:40:12;;;;;;;10.82;6.40;;;;;;;;;;5054817;28;20123;-73
2023/04/05 12:42:39;;;;;;;10.73;6.72;;;;;;;;;;5054827;28;20623;-70
2023/04/05 12:45:06;;;;;;;13.48;5.90;;;;;;;;;;5054835;28;20531;-73
2023/04/05 12:47:34;;;;;;;11.95;5.82;;;;;;;;;;5054941;28;20025;-72
2023/04/05 12:50:10;;;;;;;8.55;5.32;;;;;;;;;;5053547;28;20481;-75
2023/04/05 12:52:36;;;;;;;12.13;5.78;;;;;;;;;;5054877;28;20050;-68
2023/04/05 12:55:02;;;;;;;11.95;5.47;;;;;;;;;;5068536;28;20426;-72
2023/04/05 12:57:31;;;;;;;14.95;5.70;;;;;;;;;;5074426;28;20021;-72
2023/04/05 12:59:57;;;;;;;10.65;5.78;;;;;;;;;;5074515;28;20081;-72
2023/04/05 13:02:24;;;;;;;8.02;5.40;;;;;;;;;;5074878;28;20031;-73
2023/04/05 13:04:49;;;;;;;12.23;5.10;;;;;;;;;;5074170;28;20051;-74
2023/04/05 13:07:16;;;;;;;9.30;5.80;;;;;;;;;;5074499;28;20059;-71
2023/04/05 13:09:42;;;;;;;9.18;4.85;;;;;;;;;;5074319;28;20053;-72
2023/04/05 13:12:08;;;;;;;15.55;5.03;;;;;;;;;;5074693;28;20542;-70
2023/04/05 13:14:34;;;;;;;11.10;5.55;;;;;;;;;;5074228;28;20056;-72
2023/04/05 13:17:00;;;;;;;9.55;5.18;;;;;;;;;;5074421;28;20099;-70
2023/04/05 13:19:26;;;;;;;9.88;5.05;;;;;;;;;;5074162;28;20037;-72
2023/04/05 13:21:52;;;;;;;7.75;5.15;;;;;;;;;;5074153;28;20082;-72
2023/04/05 13:24:18;;;;;;;15.05;5.43;;;;;;;;;;5074360;28;20052;-72
2023/04/05 13:26:44;;;;;;;10.38;5.60;;;;;;;;;;5074217;28;20060;-72
2023/04/05 13:29:10;;;;;;;11.88;6.00;;;;;;;;;;5074146;28;20029;-72
2023/04/05 13:31:36;;;;;;;11.25;5.35;;;;;;;;;;5074222;28;20017;-72
2023/04/05 13:34:02;;;;;;;13.32;4.78;;;;;;;;;;5053854;28;20485;-73
2023/04/05 13:36:28;;;;;;;9.77;5.53;;;;;;;;;;5053098;28;20028;-73
2023/04/05 13:38:54;;;;;;;10.88;5.20;;;;;;;;;;5054148;28;20021;-74
2023/04/05 13:41:22;;;;;;;11.65;5.40;;;;;;;;;;5052243;28;20057;-73
2023/04/05 13:43:48;;;;;;;13.68;4.95;;;;;;;;;;5053574;28;20060;-72
2023/04/05 13:46:14;;;;;;;12.88;5.20;;;;;;;;;;5053760;28;20021;-73
2023/04/05 13:48:40;;;;;;;12.00;4.78;;;;;;;;;;5053664;28;20017;-72
2023/04/05 13:51:06;;;;;;;9.27;4.82;;;;;;;;;;5053459;28;20025;-72
2023/04/05 13:53:32;;;;;;;9.38;5.45;;;;;;;;;;5053663;28;20466;-70
2023/04/05 13:55:58;;;;;;;6.65;4.30;;;;;;;;;;5053659;28;20029;-71
2023/04/05 13:58:24;;;;;;;9.13;4.30;;;;;;;;;;5053482;28;20028;-72
2023/04/05 14:00:52;;;;;;;6.38;3.80;;;;;;;;;;5053320;28;20060;-72
2023/04/05 14:03:18;;;;;;;11.40;5.32;;;;;;;;;;5053228;28;20029;-72
2023/04/05 14:05:44;;;;;;;12.32;4.82;;;;;;;;;;5051984;28;20036;-72
2023/04/05 14:08:10;;;;;;;7.43;4.60;;;;;;;;;;5052090;28;20021;-72
2023/04/05 14:10:36;;;;;;;7.35;5.07;;;;;;;;;;5053176;28;20147;-72
2023/04/05 14:13:02;;;;;;;11.25;4.50;;;;;;;;;;5053229;28;20104;-72
2023/04/05 14:15:28;;;;;;;9.45;4.18;;;;;;;;;;5053322;28;20036;-71
2023/04/05 14:17:54;;;;;;;7.35;4.43;;;;;;;;;;5053101;28;20021;-70
2023/04/05 14:20:20;;;;;;;8.13;4.80;;;;;;;;;;5053049;28;20108;-68
2023/04/05 14:22:46;;;;;;;7.38;4.07;;;;;;;;;;5053046;28;20021;-69